createdAt,value
2022-07-26T00:01:58.300Z,96.30
2022-07-26T00:04:26.479Z,96.30
2022-07-26T00:06:54.371Z,96.20
2022-07-26T00:09:22.157Z,96.40
2022-07-26T00:11:49.923Z,96.80
2022-07-26T00:16:46.683Z,96.50
2022-07-26T00:19:14.624Z,96.50
2022-07-26T00:21:42.393Z,96.60
2022-07-26T00:24:10.214Z,96.50
2022-07-26T00:26:37.904Z,96.60
2022-07-26T00:31:34.258Z,97.00
2022-07-26T00:34:02.133Z,97.50
2022-07-26T00:36:29.909Z,97.70
2022-07-26T00:38:57.623Z,97.70
2022-07-26T00:41:25.356Z,97.80
2022-07-26T00:43:58.497Z,98.20
2022-07-26T00:46:26.606Z,98.00
2022-07-26T00:48:54.660Z,98.00
2022-07-26T00:51:22.714Z,98.30
2022-07-26T00:53:50.696Z,98.40
2022-07-26T00:56:18.550Z,98.60
2022-07-26T00:58:46.127Z,98.60
2022-07-26T01:01:13.715Z,98.30
2022-07-26T01:03:42.079Z,98.50
2022-07-26T01:06:10.172Z,98.80
2022-07-26T01:08:38.211Z,98.90
2022-07-26T01:11:06.102Z,98.80
2022-07-26T01:13:35.514Z,98.70
2022-07-26T01:16:04.412Z,99.20
2022-07-26T01:18:32.170Z,98.90
2022-07-26T01:21:09.086Z,98.90
2022-07-26T01:23:42.614Z,98.90
2022-07-26T01:26:10.891Z,99.20
2022-07-26T01:28:40.338Z,99.30
2022-07-26T01:31:08.751Z,99.50
2022-07-26T01:33:36.461Z,99.40
2022-07-26T01:36:04.256Z,99.40
2022-07-26T01:38:31.919Z,99.40
2022-07-26T01:40:59.695Z,99.60
2022-07-26T01:43:27.954Z,99.90
2022-07-26T01:45:56.043Z,99.90
2022-07-26T01:48:24.099Z,99.90
2022-07-26T01:50:51.635Z,99.90
2022-07-26T01:53:19.311Z,99.90
2022-07-26T01:55:46.869Z,99.90
2022-07-26T01:58:14.563Z,99.90
2022-07-26T02:00:42.370Z,99.90
2022-07-26T02:03:10.055Z,99.90
2022-07-26T02:05:37.699Z,99.90
2022-07-26T02:08:05.399Z,99.90
2022-07-26T02:10:52.024Z,99.90
2022-07-26T02:13:19.614Z,99.90
2022-07-26T02:15:47.179Z,99.90
2022-07-26T02:18:14.951Z,99.90
2022-07-26T02:20:42.508Z,99.90
2022-07-26T02:23:10.107Z,99.90
2022-07-26T02:25:37.954Z,99.90
2022-07-26T02:28:05.749Z,99.90
2022-07-26T02:30:33.781Z,99.90
2022-07-26T02:33:02.122Z,99.90
2022-07-26T02:35:32.106Z,99.90
2022-07-26T02:38:07.138Z,99.90
2022-07-26T02:40:36.217Z,99.90
2022-07-26T02:43:05.129Z,99.90
2022-07-26T02:45:33.694Z,99.90
2022-07-26T02:48:01.302Z,99.90
2022-07-26T02:50:29.932Z,99.90
2022-07-26T02:52:57.770Z,99.90
2022-07-26T02:55:26.825Z,99.90
2022-07-26T02:57:54.629Z,99.90
2022-07-26T03:00:24.902Z,99.90
2022-07-26T03:02:53.104Z,99.90
2022-07-26T03:05:21.712Z,99.90
2022-07-26T03:07:49.590Z,99.90
2022-07-26T03:10:17.343Z,99.90
2022-07-26T03:12:44.933Z,99.90
2022-07-26T03:15:12.870Z,99.90
2022-07-26T03:17:40.444Z,99.90
2022-07-26T03:20:08.660Z,99.90
2022-07-26T03:22:36.347Z,99.90
2022-07-26T03:25:04.361Z,99.90
2022-07-26T03:27:31.859Z,99.90
2022-07-26T03:29:59.830Z,99.90
2022-07-26T03:32:28.385Z,99.90
2022-07-26T03:34:55.882Z,99.90
2022-07-26T03:37:23.381Z,99.90
2022-07-26T03:39:51.127Z,99.90
2022-07-26T03:42:19.356Z,99.90
2022-07-26T03:44:46.846Z,99.90
2022-07-26T03:47:14.316Z,99.90
2022-07-26T03:49:42.048Z,99.90
2022-07-26T03:52:10.878Z,99.90
2022-07-26T03:54:38.387Z,99.90
2022-07-26T03:57:06.076Z,99.90
2022-07-26T03:59:33.749Z,99.90
2022-07-26T04:02:01.557Z,99.90
2022-07-26T04:04:29.204Z,99.90
2022-07-26T04:06:57.072Z,99.90
2022-07-26T04:09:24.773Z,99.90
2022-07-26T04:11:52.253Z,99.90
2022-07-26T04:14:19.733Z,99.90
2022-07-26T04:16:47.407Z,99.90
2022-07-26T04:19:15.157Z,99.90
2022-07-26T04:21:42.719Z,99.90
2022-07-26T04:24:10.648Z,99.90
2022-07-26T04:26:38.474Z,99.90
2022-07-26T04:29:05.949Z,99.90
2022-07-26T04:31:36.447Z,99.90
2022-07-26T04:34:04.459Z,99.90
2022-07-26T04:36:32.475Z,99.90
2022-07-26T04:38:59.977Z,99.90
2022-07-26T04:41:27.807Z,99.90
2022-07-26T04:43:56.240Z,99.90
2022-07-26T04:46:25.189Z,99.90
2022-07-26T04:48:52.860Z,99.90
2022-07-26T04:51:20.606Z,99.90
2022-07-26T04:53:48.275Z,99.90
2022-07-26T04:56:15.794Z,99.90
2022-07-26T04:58:43.271Z,99.90
2022-07-26T05:01:11.407Z,99.90
2022-07-26T05:03:39.698Z,99.90
2022-07-26T05:06:07.612Z,99.90
2022-07-26T05:08:35.287Z,99.90
2022-07-26T05:11:04.239Z,99.90
2022-07-26T05:13:32.115Z,99.90
2022-07-26T05:16:00.483Z,99.90
2022-07-26T05:18:31.823Z,99.90
2022-07-26T05:23:41.798Z,99.90
2022-07-26T05:26:10.909Z,99.90
2022-07-26T05:28:41.819Z,99.90
2022-07-26T05:31:09.462Z,99.90
2022-07-26T05:33:37.608Z,99.90
2022-07-26T05:36:05.738Z,99.90
2022-07-26T05:38:33.882Z,99.90
2022-07-26T05:41:01.447Z,99.90
2022-07-26T05:43:41.343Z,99.90
2022-07-26T05:46:11.148Z,99.90
2022-07-26T05:48:40.303Z,99.90
2022-07-26T05:51:08.860Z,99.90
2022-07-26T05:56:05.188Z,99.90
2022-07-26T05:58:32.775Z,99.90
2022-07-26T06:01:00.283Z,99.90
2022-07-26T06:03:28.566Z,99.90
2022-07-26T06:05:57.844Z,99.90
2022-07-26T06:08:27.129Z,99.90
2022-07-26T06:10:55.613Z,99.90
2022-07-26T06:13:23.201Z,99.90
2022-07-26T06:15:50.757Z,99.90
2022-07-26T06:18:18.263Z,99.90
2022-07-26T06:20:47.757Z,99.90
2022-07-26T06:23:15.538Z,99.90
2022-07-26T06:25:43.068Z,99.90
2022-07-26T06:28:11.907Z,99.90
2022-07-26T06:30:39.955Z,99.90
2022-07-26T06:33:09.739Z,99.90
2022-07-26T06:35:39.145Z,99.90
2022-07-26T06:38:10.478Z,99.90
2022-07-26T06:40:38.027Z,99.90
2022-07-26T06:50:30.445Z,99.90
2022-07-26T06:52:57.929Z,99.90
2022-07-26T06:55:25.694Z,99.90
2022-07-26T06:57:53.358Z,99.90
2022-07-26T07:02:49.040Z,99.90
2022-07-26T07:05:17.200Z,99.90
2022-07-26T07:07:45.025Z,99.90
2022-07-26T07:10:14.041Z,99.90
2022-07-26T07:15:12.761Z,99.90
2022-07-26T07:17:40.309Z,99.90
2022-07-26T07:20:08.432Z,99.90
2022-07-26T07:22:36.092Z,99.90
2022-07-26T07:25:03.959Z,99.90
2022-07-26T07:27:33.932Z,99.90
2022-07-26T07:30:01.857Z,99.90
2022-07-26T07:32:29.643Z,99.90
2022-07-26T07:34:57.288Z,99.90
2022-07-26T07:37:24.930Z,99.90
2022-07-26T07:39:52.553Z,99.90
2022-07-26T07:42:21.801Z,99.90
2022-07-26T07:44:50.182Z,99.90
2022-07-26T07:47:18.011Z,99.90
2022-07-26T07:49:45.690Z,99.90
2022-07-26T07:52:13.378Z,99.90
2022-07-26T07:54:41.024Z,99.90
2022-07-26T07:57:10.443Z,99.90
2022-07-26T08:02:07.444Z,99.90
2022-07-26T08:04:35.269Z,99.90
2022-07-26T08:07:02.911Z,99.90
2022-07-26T08:09:30.551Z,99.90
2022-07-26T08:12:02.482Z,99.90
2022-07-26T08:14:30.395Z,99.90
2022-07-26T08:16:58.165Z,99.90
2022-07-26T08:19:42.062Z,99.90
2022-07-26T08:22:10.749Z,99.90
2022-07-26T08:24:38.807Z,99.90
2022-07-26T08:27:07.775Z,99.90
2022-07-26T08:29:35.446Z,99.90
2022-07-26T08:32:03.254Z,99.90
2022-07-26T08:34:30.883Z,99.90
2022-07-26T08:37:16.026Z,99.90
2022-07-26T08:39:46.776Z,99.90
2022-07-26T08:42:22.527Z,99.90
2022-07-26T08:44:52.061Z,99.90
2022-07-26T08:47:36.281Z,99.90
2022-07-26T08:50:08.609Z,99.90
2022-07-26T08:52:40.346Z,99.90
2022-07-26T08:57:37.236Z,99.90
2022-07-26T09:00:26.114Z,99.90
2022-07-26T09:02:54.122Z,99.90
2022-07-26T09:05:33.385Z,99.90
2022-07-26T09:08:21.444Z,99.90
2022-07-26T09:10:49.069Z,99.90
2022-07-26T09:13:16.788Z,99.90
2022-07-26T09:15:44.354Z,99.90
2022-07-26T09:18:29.437Z,99.90
2022-07-26T09:20:57.559Z,99.90
2022-07-26T09:23:25.332Z,99.90
2022-07-26T09:26:03.835Z,99.90
2022-07-26T09:28:32.010Z,99.90
2022-07-26T09:31:03.244Z,99.90
2022-07-26T09:33:47.959Z,99.90
2022-07-26T09:36:16.672Z,99.90
2022-07-26T09:38:48.060Z,99.90
2022-07-26T09:41:31.930Z,99.90
2022-07-26T09:44:02.117Z,99.90
2022-07-26T09:46:31.082Z,99.90
2022-07-26T09:49:16.223Z,99.90
2022-07-26T09:51:48.802Z,99.90
2022-07-26T09:54:29.102Z,99.90
2022-07-26T09:56:57.161Z,99.90
2022-07-26T09:59:26.414Z,99.90
2022-07-26T10:01:56.286Z,99.90
2022-07-26T10:04:24.532Z,99.90
2022-07-26T10:06:52.852Z,99.90
2022-07-26T10:09:23.268Z,99.90
2022-07-26T10:11:54.463Z,99.90
2022-07-26T10:14:35.886Z,99.90
2022-07-26T10:17:31.594Z,99.90
2022-07-26T10:20:16.893Z,99.90
2022-07-26T10:22:47.623Z,99.90
2022-07-26T10:25:18.401Z,99.90
2022-07-26T10:27:49.289Z,99.90
2022-07-26T10:30:19.727Z,99.90
2022-07-26T10:33:13.403Z,99.90
2022-07-26T10:35:43.604Z,99.90
2022-07-26T10:38:13.000Z,99.90
2022-07-26T10:41:01.217Z,99.90
2022-07-26T10:43:44.976Z,99.90
2022-07-26T10:46:18.865Z,99.90
2022-07-26T10:49:04.696Z,99.90
2022-07-26T10:51:35.820Z,99.90
2022-07-26T10:54:05.348Z,99.90
2022-07-26T10:56:34.292Z,99.90
2022-07-26T10:59:03.606Z,99.90
2022-07-26T11:01:39.664Z,99.90
2022-07-26T11:04:18.362Z,99.90
2022-07-26T11:06:45.970Z,99.90
2022-07-26T11:09:13.918Z,99.90
2022-07-26T11:11:47.184Z,99.90
2022-07-26T11:14:16.907Z,99.90
2022-07-26T11:16:50.901Z,99.80
2022-07-26T11:19:21.015Z,99.80
2022-07-26T11:21:59.873Z,99.90
2022-07-26T11:24:28.646Z,99.80
2022-07-26T11:27:02.451Z,99.90
2022-07-26T11:29:38.876Z,99.50
2022-07-26T11:32:23.608Z,99.90
2022-07-26T11:35:02.213Z,99.90
2022-07-26T11:37:31.006Z,99.90
2022-07-26T11:39:58.956Z,99.10
2022-07-26T11:42:26.604Z,99.90
2022-07-26T11:44:54.428Z,99.20
2022-07-26T11:47:25.283Z,99.90
2022-07-26T11:50:13.838Z,99.90
2022-07-26T11:52:42.078Z,99.90
2022-07-26T11:55:10.026Z,99.70
2022-07-26T11:57:38.422Z,99.60
2022-07-26T12:00:07.088Z,99.50
2022-07-26T12:02:40.706Z,99.80
2022-07-26T12:05:22.952Z,99.90
2022-07-26T12:08:07.332Z,99.90
2022-07-26T12:10:35.163Z,99.90
2022-07-26T12:13:13.214Z,99.60
2022-07-26T12:15:52.238Z,99.70
2022-07-26T12:18:28.276Z,98.80
2022-07-26T12:21:07.224Z,98.70
2022-07-26T12:23:46.540Z,98.90
2022-07-26T12:26:25.450Z,98.00
2022-07-26T12:28:54.540Z,98.40
2022-07-26T12:31:27.518Z,98.40
2022-07-26T12:33:55.663Z,97.90
2022-07-26T12:36:27.472Z,98.20
2022-07-26T12:39:00.946Z,97.70
2022-07-26T12:41:34.886Z,97.20
2022-07-26T12:44:03.070Z,97.40
2022-07-26T12:46:37.180Z,97.20
2022-07-26T12:49:05.583Z,97.30
2022-07-26T12:51:33.688Z,97.10
2022-07-26T12:54:01.697Z,97.10
2022-07-26T12:56:29.642Z,97.10
2022-07-26T12:59:01.674Z,96.80
2022-07-26T13:01:31.336Z,97.20
2022-07-26T13:03:59.729Z,96.50
2022-07-26T13:06:27.452Z,96.10
2022-07-26T13:08:56.745Z,96.20
2022-07-26T13:11:25.047Z,96.50
2022-07-26T13:13:52.807Z,96.30
2022-07-26T13:16:20.443Z,96.70
2022-07-26T13:18:48.003Z,96.20
2022-07-26T13:21:15.654Z,95.90
2022-07-26T13:23:43.260Z,96.20
2022-07-26T13:26:11.015Z,96.60
2022-07-26T13:28:40.587Z,96.60
2022-07-26T13:31:08.518Z,96.40
2022-07-26T13:36:07.174Z,96.60
2022-07-26T13:38:35.128Z,96.60
2022-07-26T13:41:03.122Z,96.60
2022-07-26T13:43:35.261Z,96.60
2022-07-26T13:46:03.008Z,96.70
2022-07-26T13:48:30.655Z,97.10
2022-07-26T13:50:58.288Z,97.90
2022-07-26T13:53:26.431Z,98.50
2022-07-26T13:55:53.940Z,98.90
2022-07-26T13:58:21.847Z,99.40
2022-07-26T14:00:49.628Z,99.90
2022-07-26T14:03:18.134Z,99.90
2022-07-26T14:05:45.925Z,99.90
2022-07-26T14:08:13.906Z,99.90
2022-07-26T14:10:41.664Z,99.90
2022-07-26T14:13:09.727Z,99.90
2022-07-26T14:15:37.368Z,99.90
2022-07-26T14:20:36.577Z,99.70
2022-07-26T14:23:04.555Z,99.90
2022-07-26T14:25:33.309Z,99.60
2022-07-26T14:28:01.022Z,99.40
2022-07-26T14:30:28.821Z,99.40
2022-07-26T14:32:56.462Z,99.20
2022-07-26T14:35:24.162Z,98.30
2022-07-26T14:37:51.706Z,98.10
2022-07-26T14:40:19.310Z,96.90
2022-07-26T14:42:47.202Z,95.60
2022-07-26T14:45:16.742Z,93.70
2022-07-26T14:47:44.704Z,94.00
2022-07-26T14:50:14.829Z,93.00
2022-07-26T14:52:47.592Z,91.50
2022-07-26T14:55:19.224Z,91.50
2022-07-26T14:57:50.669Z,88.20
2022-07-26T15:00:18.850Z,83.10
2022-07-26T15:02:48.753Z,81.00
2022-07-26T15:05:17.370Z,81.80
2022-07-26T15:07:46.374Z,82.10
2022-07-26T15:10:15.241Z,83.20
2022-07-26T15:12:43.537Z,77.70
2022-07-26T15:15:11.787Z,78.60
2022-07-26T15:17:39.541Z,78.80
2022-07-26T15:20:07.755Z,79.70
2022-07-26T15:22:35.567Z,80.80
2022-07-26T15:25:03.328Z,81.10
2022-07-26T15:27:30.893Z,82.00
2022-07-26T15:30:03.505Z,81.30
2022-07-26T15:32:32.448Z,80.80
2022-07-26T15:37:29.046Z,81.40
2022-07-26T15:39:56.823Z,82.30
2022-07-26T15:42:24.834Z,82.60
2022-07-26T15:44:52.616Z,82.30
2022-07-26T15:50:11.655Z,82.70
2022-07-26T15:52:41.737Z,83.20
2022-07-26T15:55:11.405Z,83.20
2022-07-26T15:57:39.407Z,83.00
2022-07-26T16:00:11.720Z,82.60
2022-07-26T16:02:41.309Z,82.10
2022-07-26T16:05:09.935Z,81.00
2022-07-26T16:07:41.416Z,81.10
2022-07-26T16:10:12.511Z,81.60
2022-07-26T16:12:41.586Z,81.30
2022-07-26T16:15:10.675Z,81.00
2022-07-26T16:17:38.929Z,81.70
2022-07-26T16:20:07.454Z,80.80
2022-07-26T16:22:35.200Z,80.90
2022-07-26T16:25:02.755Z,81.10
2022-07-26T16:27:30.264Z,80.70
2022-07-26T16:29:58.051Z,81.30
2022-07-26T16:32:26.015Z,81.40
2022-07-26T16:37:21.990Z,79.90
2022-07-26T16:39:49.603Z,79.90
2022-07-26T16:42:17.219Z,79.70
2022-07-26T16:44:45.141Z,80.10
2022-07-26T16:47:12.750Z,80.10
2022-07-26T16:49:40.335Z,80.30
2022-07-26T16:52:08.052Z,80.90
2022-07-26T16:54:35.751Z,81.00
2022-07-26T16:57:03.523Z,80.30
2022-07-26T16:59:31.081Z,80.50
2022-07-26T17:02:01.621Z,80.50
2022-07-26T17:04:30.834Z,80.30
2022-07-26T17:07:22.643Z,80.30
2022-07-26T17:09:46.544Z,80.50
2022-07-26T17:12:14.073Z,81.00
2022-07-26T17:14:41.790Z,80.40
2022-07-26T17:17:09.516Z,81.30
2022-07-26T17:19:37.195Z,80.30
2022-07-26T17:22:04.728Z,80.10
2022-07-26T17:24:32.476Z,80.80
2022-07-26T17:27:01.096Z,81.30
2022-07-26T17:29:28.966Z,81.70
2022-07-26T17:31:56.483Z,84.30
2022-07-26T17:34:27.706Z,88.40
2022-07-26T17:36:59.897Z,88.30
2022-07-26T17:39:50.908Z,90.20
2022-07-26T17:42:16.014Z,91.20
2022-07-26T17:44:43.726Z,92.10
2022-07-26T17:47:27.720Z,92.30
2022-07-26T17:50:26.401Z,93.10
2022-07-26T17:52:51.320Z,93.90
2022-07-26T17:55:19.821Z,93.80
2022-07-26T17:57:48.588Z,94.60
2022-07-26T18:00:20.452Z,94.60
2022-07-26T18:02:48.736Z,94.80
2022-07-26T18:05:18.401Z,94.70
2022-07-26T18:07:46.013Z,95.00
2022-07-26T18:10:14.524Z,95.30
2022-07-26T18:12:42.340Z,95.40
2022-07-26T18:15:10.625Z,95.50
2022-07-26T18:17:39.849Z,96.10
2022-07-26T18:20:08.023Z,96.20
2022-07-26T18:22:35.884Z,96.30
2022-07-26T18:25:05.000Z,96.90
2022-07-26T18:30:00.617Z,97.10
2022-07-26T18:34:56.403Z,97.60
2022-07-26T18:37:24.018Z,97.90
2022-07-26T18:39:57.036Z,98.20
2022-07-26T18:42:25.963Z,98.90
2022-07-26T18:47:21.821Z,99.00
2022-07-26T18:52:28.689Z,99.40
2022-07-26T18:55:02.942Z,99.90
2022-07-26T18:57:30.699Z,99.90
2022-07-26T18:59:58.233Z,99.90
2022-07-26T19:02:25.789Z,99.90
2022-07-26T19:04:53.694Z,99.90
2022-07-26T19:09:53.748Z,99.90
2022-07-26T19:12:24.073Z,99.90
2022-07-26T19:14:51.576Z,99.90
2022-07-26T19:17:19.374Z,99.90
2022-07-26T19:19:46.879Z,99.90
2022-07-26T19:22:14.454Z,99.90
2022-07-26T19:24:42.363Z,99.90
2022-07-26T19:27:10.130Z,99.90
2022-07-26T19:29:38.277Z,99.90
2022-07-26T19:32:06.186Z,99.90
2022-07-26T19:34:33.964Z,99.90
2022-07-26T19:37:01.985Z,99.90
2022-07-26T19:39:29.582Z,99.90
2022-07-26T19:41:58.468Z,99.90
2022-07-26T19:44:26.315Z,99.90
2022-07-26T19:46:57.527Z,99.90
2022-07-26T19:49:25.763Z,99.90
2022-07-26T19:51:53.551Z,99.90
2022-07-26T19:54:21.491Z,99.90
2022-07-26T19:56:49.241Z,99.90
2022-07-26T19:59:22.699Z,99.90
2022-07-26T20:01:53.029Z,99.90
2022-07-26T20:04:21.879Z,99.90
2022-07-26T20:06:50.185Z,99.90
2022-07-26T20:09:17.806Z,99.90
2022-07-26T20:11:50.978Z,99.90
2022-07-26T20:14:20.503Z,99.90
2022-07-26T20:16:55.659Z,99.90
2022-07-26T20:19:24.936Z,99.90
2022-07-26T20:21:52.623Z,99.90
2022-07-26T20:24:20.500Z,99.90
2022-07-26T20:26:48.365Z,99.90
2022-07-26T20:29:16.222Z,99.90
2022-07-26T20:31:44.404Z,99.90
2022-07-26T20:34:12.587Z,99.90
2022-07-26T20:36:40.290Z,99.90
2022-07-26T20:41:36.630Z,99.90
2022-07-26T20:44:05.363Z,99.90
2022-07-26T20:46:33.080Z,99.90
2022-07-26T20:49:00.701Z,99.90
2022-07-26T20:51:28.436Z,99.90
2022-07-26T20:53:56.113Z,99.90
2022-07-26T20:56:23.851Z,99.90
2022-07-26T20:58:52.830Z,99.90
2022-07-26T21:01:20.575Z,99.90
2022-07-26T21:03:48.417Z,99.90
2022-07-26T21:06:15.949Z,99.90
2022-07-26T21:08:43.843Z,99.90
2022-07-26T21:11:11.453Z,99.90
2022-07-26T21:13:39.119Z,99.90
2022-07-26T21:16:09.981Z,99.90
2022-07-26T21:18:38.399Z,99.90
2022-07-26T21:21:06.266Z,99.90
2022-07-26T21:23:34.088Z,99.90
2022-07-26T21:26:01.803Z,99.90
2022-07-26T21:28:29.803Z,99.90
2022-07-26T21:30:57.721Z,99.90
2022-07-26T21:33:25.516Z,99.90
2022-07-26T21:35:53.541Z,99.90
2022-07-26T21:38:21.267Z,99.90
2022-07-26T21:45:45.064Z,99.90
2022-07-26T21:48:12.756Z,99.90
2022-07-26T21:50:40.509Z,99.90
2022-07-26T21:55:36.313Z,99.90
2022-07-26T21:58:03.835Z,99.90
2022-07-26T22:00:31.690Z,99.90
2022-07-26T22:02:59.268Z,99.90
2022-07-26T22:05:35.473Z,99.90
2022-07-26T22:08:03.980Z,99.90
2022-07-26T22:10:33.602Z,99.90
2022-07-26T22:13:02.802Z,99.90
2022-07-26T22:15:32.107Z,99.90
2022-07-26T22:18:02.948Z,99.90
2022-07-26T22:20:32.141Z,99.90
2022-07-26T22:23:05.345Z,99.90
2022-07-26T22:25:34.467Z,99.90
2022-07-26T22:28:03.697Z,99.90
2022-07-26T22:30:31.498Z,99.90
2022-07-26T22:33:00.606Z,99.90
2022-07-26T22:35:33.501Z,99.90
2022-07-26T22:38:09.540Z,99.90
2022-07-26T22:40:38.843Z,99.90
2022-07-26T22:43:07.050Z,99.90
2022-07-26T22:45:35.717Z,99.90
2022-07-26T22:48:05.393Z,99.90
2022-07-26T22:50:33.680Z,99.90
2022-07-26T22:53:03.219Z,99.90
2022-07-26T22:55:31.762Z,99.90
2022-07-26T22:58:00.805Z,99.90
2022-07-26T23:00:28.877Z,99.90
2022-07-26T23:02:56.581Z,99.90
2022-07-26T23:05:45.790Z,99.90
2022-07-26T23:11:05.223Z,99.90
2022-07-26T23:13:32.989Z,99.90
2022-07-26T23:16:01.640Z,99.90
2022-07-26T23:18:31.129Z,99.90
2022-07-26T23:20:58.873Z,99.90
2022-07-26T23:23:29.655Z,99.90
2022-07-26T23:25:59.507Z,99.90
2022-07-26T23:28:37.170Z,99.90
2022-07-26T23:31:11.359Z,99.90
2022-07-26T23:33:52.667Z,99.90
2022-07-26T23:36:26.802Z,99.90
2022-07-26T23:38:56.201Z,99.90
2022-07-26T23:41:25.053Z,99.90
2022-07-26T23:43:54.423Z,99.90
2022-07-26T23:46:22.921Z,99.90
2022-07-26T23:48:51.571Z,99.90
2022-07-26T23:53:47.530Z,99.90
2022-07-26T23:56:15.700Z,99.90
2022-07-26T23:58:44.509Z,99.90
